Andrews Bridge, Pennsylvania
Current Conditions -  °F | °C
As of 4:55 AM on Saturday 01 Nov 2014 (Local Time) from KMQS Reporting Station
Overcast Overcast  
Wind Chill:   Ceiling: 1400
Heat Index:   Visibility: 10mi
Dew Point:   Wind: 8mph
Humidity: 81%   Direction: 20°NNE
Pressure: 29.77"   Gusts: 16mph
Location:  39.9118°N, 76.0265°W
Report Text: KMQS 010855Z AUTO 02007G14KT 10SM OVC014 08/05 A2977 RMK AO2
Loading
Personal Weather Stations






























Interactive Weather Map
Tropical Storm Tracking
New forecast layout! Learn more

10-Day Weather Forecast

Advertisements
Track Severe Weather on mobile